createdAt,value
2023-04-27T00:00:37.163Z,41.50
2023-04-27T00:01:37.108Z,31.89
2023-04-27T00:02:37.120Z,31.56
2023-04-27T00:03:37.252Z,37.38
2023-04-27T00:04:37.245Z,41.36
2023-04-27T00:05:37.172Z,42.71
2023-04-27T00:06:37.061Z,44.13
2023-04-27T00:07:37.013Z,40.21
2023-04-27T00:08:37.041Z,38.10
2023-04-27T00:09:36.981Z,31.99
2023-04-27T00:10:36.989Z,33.42
2023-04-27T00:11:37.044Z,48.16
2023-04-27T00:12:36.997Z,37.49
2023-04-27T00:13:36.963Z,52.36
2023-04-27T00:14:36.938Z,36.53
2023-04-27T00:15:36.962Z,40.06
2023-04-27T00:16:37.001Z,36.71
2023-04-27T00:17:36.962Z,51.32
2023-04-27T00:18:36.915Z,39.44
2023-04-27T00:19:36.975Z,42.86
2023-04-27T00:20:36.879Z,37.71
2023-04-27T00:21:37.018Z,50.12
2023-04-27T00:22:36.853Z,49.86
2023-04-27T00:23:36.935Z,34.98
2023-04-27T00:24:36.885Z,39.24
2023-04-27T00:25:36.869Z,41.77
2023-04-27T00:26:36.829Z,45.37
2023-04-27T00:27:36.820Z,50.58
2023-04-27T00:28:36.886Z,47.43
2023-04-27T00:29:36.818Z,50.14
2023-04-27T00:30:36.858Z,50.54
2023-04-27T00:31:36.848Z,47.61
2023-04-27T00:32:36.808Z,48.20
2023-04-27T00:33:36.740Z,40.02
2023-04-27T00:34:36.717Z,51.42
2023-04-27T00:35:37.483Z,42.30
2023-04-27T00:36:36.786Z,37.51
2023-04-27T00:37:36.749Z,52.29
2023-04-27T00:38:36.716Z,49.64
2023-04-27T00:39:36.706Z,57.64
2023-04-27T00:40:36.695Z,40.94
2023-04-27T00:41:36.699Z,50.24
2023-04-27T00:42:37.437Z,34.95
2023-04-27T00:43:36.656Z,40.55
2023-04-27T00:44:38.054Z,54.57
2023-04-27T00:45:36.682Z,35.80
2023-04-27T00:46:36.685Z,41.85
2023-04-27T00:47:36.679Z,36.69
2023-04-27T00:48:36.625Z,57.57
2023-04-27T00:49:36.661Z,45.38
2023-04-27T00:50:36.600Z,48.68
2023-04-27T00:51:36.674Z,46.35
2023-04-27T00:52:36.592Z,52.28
2023-04-27T00:53:36.614Z,47.58
2023-04-27T00:54:36.567Z,51.21
2023-04-27T00:55:36.577Z,42.33
2023-04-27T00:56:36.667Z,46.70
2023-04-27T00:57:36.538Z,52.83
2023-04-27T00:58:37.363Z,44.40
2023-04-27T00:59:36.537Z,51.91
2023-04-27T01:00:36.557Z,45.14
2023-04-27T01:01:36.516Z,36.24
2023-04-27T01:02:36.591Z,33.34
2023-04-27T01:03:36.768Z,47.55
2023-04-27T01:04:36.551Z,46.80
2023-04-27T01:05:36.573Z,45.28
2023-04-27T01:06:36.425Z,44.86
2023-04-27T01:07:36.534Z,34.24
2023-04-27T01:08:36.470Z,46.96
2023-04-27T01:09:36.397Z,47.44
2023-04-27T01:10:36.407Z,33.81
2023-04-27T01:11:36.421Z,39.43
2023-04-27T01:12:36.401Z,41.85
2023-04-27T01:13:36.354Z,43.55
2023-04-27T01:14:36.487Z,36.97
2023-04-27T01:15:36.370Z,50.11
2023-04-27T01:16:36.451Z,44.14
2023-04-27T01:17:36.374Z,32.26
2023-04-27T01:18:36.344Z,42.87
2023-04-27T01:19:36.312Z,50.58
2023-04-27T01:20:36.313Z,51.16
2023-04-27T01:21:37.354Z,55.23
2023-04-27T01:22:36.323Z,41.36
2023-04-27T01:23:36.376Z,32.17
2023-04-27T01:24:36.318Z,32.33
2023-04-27T01:25:36.257Z,47.30
2023-04-27T01:26:36.413Z,47.93
2023-04-27T01:27:36.236Z,53.43
2023-04-27T01:28:36.220Z,55.92
2023-04-27T01:29:36.218Z,50.25
2023-04-27T01:30:36.200Z,52.14
2023-04-27T01:31:36.293Z,49.80
2023-04-27T01:32:36.265Z,40.57
2023-04-27T01:33:36.314Z,41.75
2023-04-27T01:34:36.129Z,41.35
2023-04-27T01:35:36.170Z,50.86
2023-04-27T01:36:36.165Z,44.40
2023-04-27T01:37:36.920Z,36.13
2023-04-27T01:38:36.134Z,54.77
2023-04-27T01:39:36.145Z,43.15
2023-04-27T01:40:36.229Z,46.67
2023-04-27T01:41:36.136Z,33.24
2023-04-27T01:42:36.095Z,47.82
2023-04-27T01:43:36.159Z,50.06
2023-04-27T01:44:36.821Z,49.58
2023-04-27T01:45:36.077Z,47.26
2023-04-27T01:46:36.148Z,48.07
2023-04-27T01:47:36.113Z,44.14
2023-04-27T01:48:36.039Z,51.31
2023-04-27T01:49:36.981Z,52.24
2023-04-27T01:50:36.035Z,56.01
2023-04-27T01:51:36.042Z,44.67
2023-04-27T01:52:35.974Z,44.24
2023-04-27T01:53:36.004Z,34.61
2023-04-27T01:54:35.982Z,47.01
2023-04-27T01:55:35.956Z,45.45
2023-04-27T01:56:37.515Z,50.78
2023-04-27T01:57:35.919Z,52.63
2023-04-27T01:58:35.972Z,51.55
2023-04-27T01:59:35.944Z,45.39
2023-04-27T02:00:36.808Z,47.55
2023-04-27T02:01:35.997Z,50.86
2023-04-27T02:02:35.981Z,43.45
2023-04-27T02:03:36.050Z,52.83
2023-04-27T02:04:35.969Z,45.89
2023-04-27T02:05:35.997Z,44.18
2023-04-27T02:06:35.895Z,46.05
2023-04-27T02:07:35.918Z,49.73
2023-04-27T02:08:35.832Z,52.28
2023-04-27T02:09:35.832Z,45.99
2023-04-27T02:10:35.837Z,47.31
2023-04-27T02:11:35.833Z,53.75
2023-04-27T02:12:36.325Z,56.82
2023-04-27T02:13:35.785Z,53.09
2023-04-27T02:14:35.832Z,49.07
2023-04-27T02:15:35.801Z,41.81
2023-04-27T02:16:35.906Z,45.47
2023-04-27T02:17:36.504Z,50.89
2023-04-27T02:18:35.730Z,46.91
2023-04-27T02:19:35.799Z,46.45
2023-04-27T02:20:35.739Z,48.03
2023-04-27T02:21:35.992Z,56.64
2023-04-27T02:22:35.733Z,51.40
2023-04-27T02:23:35.716Z,51.19
2023-04-27T02:24:36.527Z,54.15
2023-04-27T02:25:35.702Z,47.42
2023-04-27T02:26:35.699Z,54.70
2023-04-27T02:27:35.628Z,50.63
2023-04-27T02:28:36.341Z,54.51
2023-04-27T02:29:35.631Z,54.96
2023-04-27T02:30:35.637Z,57.22
2023-04-27T02:31:36.084Z,46.54
2023-04-27T02:32:35.700Z,43.25
2023-04-27T02:33:35.647Z,47.92
2023-04-27T02:34:35.686Z,48.69
2023-04-27T02:35:35.664Z,47.71
2023-04-27T02:36:35.604Z,54.12
2023-04-27T02:37:35.574Z,49.21
2023-04-27T02:38:35.564Z,57.41
2023-04-27T02:39:35.583Z,55.51
2023-04-27T02:40:35.518Z,56.76
2023-04-27T02:41:35.552Z,59.11
2023-04-27T02:42:35.533Z,54.00
2023-04-27T02:43:35.535Z,51.03
2023-04-27T02:44:35.496Z,53.44
2023-04-27T02:45:35.515Z,44.45
2023-04-27T02:46:35.543Z,43.75
2023-04-27T02:47:36.466Z,52.45
2023-04-27T02:48:35.453Z,54.63
2023-04-27T02:49:37.406Z,49.59
2023-04-27T02:50:35.418Z,52.02
2023-04-27T02:51:35.463Z,53.01
2023-04-27T02:52:35.398Z,50.69
2023-04-27T02:53:35.419Z,53.78
2023-04-27T02:54:36.069Z,54.99
2023-04-27T02:55:35.434Z,55.76
2023-04-27T02:56:35.628Z,54.50
2023-04-27T02:57:35.374Z,54.06
2023-04-27T02:58:35.336Z,49.98
2023-04-27T02:59:35.343Z,55.40
2023-04-27T03:00:35.350Z,52.64
2023-04-27T03:01:35.435Z,54.95
2023-04-27T03:02:35.372Z,51.53
2023-04-27T03:03:35.467Z,55.66
2023-04-27T03:04:35.353Z,51.29
2023-04-27T03:05:35.449Z,46.13
2023-04-27T03:06:35.274Z,56.29
2023-04-27T03:07:35.251Z,49.94
2023-04-27T03:08:35.252Z,57.80
2023-04-27T03:09:35.232Z,59.39
2023-04-27T03:10:35.375Z,55.40
2023-04-27T03:11:37.259Z,48.94
2023-04-27T03:12:36.951Z,56.68
2023-04-27T03:13:35.197Z,53.42
2023-04-27T03:14:35.190Z,53.44
2023-04-27T03:15:35.202Z,51.24
2023-04-27T03:16:35.204Z,57.56
2023-04-27T03:17:35.334Z,57.24
2023-04-27T03:18:35.172Z,55.04
2023-04-27T03:19:35.169Z,56.32
2023-04-27T03:20:35.127Z,59.57
2023-04-27T03:21:35.184Z,56.65
2023-04-27T03:22:35.126Z,59.22
2023-04-27T03:23:35.116Z,58.86
2023-04-27T03:24:35.182Z,57.35
2023-04-27T03:25:35.080Z,59.11
2023-04-27T03:26:35.167Z,57.80
2023-04-27T03:27:35.087Z,55.74
2023-04-27T03:28:35.100Z,56.04
2023-04-27T03:29:35.025Z,56.17
2023-04-27T03:30:35.039Z,58.81
2023-04-27T03:31:35.151Z,56.89
2023-04-27T03:32:35.049Z,57.07
2023-04-27T03:33:35.106Z,58.99
2023-04-27T03:34:34.985Z,56.94
2023-04-27T03:35:35.012Z,58.25
2023-04-27T03:36:35.009Z,59.45
2023-04-27T03:37:34.976Z,57.43
2023-04-27T03:38:34.964Z,60.64
2023-04-27T03:39:34.937Z,60.37
2023-04-27T03:40:35.075Z,61.12
2023-04-27T03:41:34.984Z,59.98
2023-04-27T03:42:34.959Z,63.23
2023-04-27T03:43:34.887Z,59.31
2023-04-27T03:44:34.921Z,57.56
2023-04-27T03:45:34.888Z,57.23
2023-04-27T03:46:35.112Z,59.73
2023-04-27T03:47:34.948Z,56.30
2023-04-27T03:48:34.831Z,59.46
2023-04-27T03:49:34.892Z,59.53
2023-04-27T03:50:34.830Z,57.73
2023-04-27T03:51:34.837Z,59.98
2023-04-27T03:52:35.021Z,57.96
2023-04-27T03:53:34.801Z,58.03
2023-04-27T03:54:34.807Z,58.37
2023-04-27T03:55:34.787Z,57.37
2023-04-27T03:56:35.372Z,63.20
2023-04-27T03:57:34.792Z,58.76
2023-04-27T03:58:34.748Z,58.04
2023-04-27T03:59:35.441Z,59.98
2023-04-27T04:00:34.761Z,58.92
2023-04-27T04:01:34.750Z,58.10
2023-04-27T04:02:34.828Z,61.53
2023-04-27T04:03:35.069Z,60.64
2023-04-27T04:04:34.840Z,61.30
2023-04-27T04:05:35.336Z,59.83
2023-04-27T04:06:34.681Z,59.65
2023-04-27T04:07:34.674Z,58.56
2023-04-27T04:08:34.660Z,59.60
2023-04-27T04:09:34.646Z,58.32
2023-04-27T04:10:34.760Z,56.69
2023-04-27T04:11:34.647Z,59.15
2023-04-27T04:12:34.676Z,59.95
2023-04-27T04:13:34.600Z,59.97
2023-04-27T04:14:34.617Z,59.23
2023-04-27T04:15:34.674Z,58.32
2023-04-27T04:16:34.729Z,59.44
2023-04-27T04:17:34.683Z,57.98
2023-04-27T04:18:34.584Z,57.06
2023-04-27T04:19:34.584Z,59.63
2023-04-27T04:20:34.537Z,58.33
2023-04-27T04:21:34.714Z,58.36
2023-04-27T04:22:34.544Z,55.22
2023-04-27T04:23:34.600Z,60.33
2023-04-27T04:24:35.436Z,59.56
2023-04-27T04:25:34.513Z,60.44
2023-04-27T04:26:34.490Z,61.14
2023-04-27T04:27:34.495Z,57.24
2023-04-27T04:28:34.442Z,62.17
2023-04-27T04:29:34.443Z,59.61
2023-04-27T04:30:34.403Z,58.81
2023-04-27T04:31:34.573Z,60.21
2023-04-27T04:32:34.443Z,59.41
2023-04-27T04:33:34.577Z,61.29
2023-04-27T04:34:34.446Z,60.75
2023-04-27T04:35:34.381Z,60.66
2023-04-27T04:36:34.431Z,61.28
2023-04-27T04:37:34.347Z,61.07
2023-04-27T04:38:34.447Z,59.84
2023-04-27T04:39:34.385Z,62.85
2023-04-27T04:40:34.343Z,61.11
2023-04-27T04:41:34.372Z,62.32
2023-04-27T04:42:34.315Z,61.29
2023-04-27T04:43:34.265Z,61.81
2023-04-27T04:44:34.308Z,61.67
2023-04-27T04:45:35.067Z,61.83
2023-04-27T04:46:34.379Z,61.44
2023-04-27T04:47:34.425Z,61.36
2023-04-27T04:48:34.288Z,61.50
2023-04-27T04:49:34.289Z,61.75
2023-04-27T04:50:34.257Z,61.96
2023-04-27T04:51:34.306Z,62.60
2023-04-27T04:52:34.302Z,61.34
2023-04-27T04:53:34.301Z,62.83
2023-04-27T04:54:34.224Z,63.10
2023-04-27T04:55:34.206Z,65.19
2023-04-27T04:56:34.182Z,61.37
2023-04-27T04:57:34.204Z,62.86
2023-04-27T04:58:34.167Z,63.99
2023-04-27T04:59:34.913Z,61.82
2023-04-27T05:00:34.140Z,62.55
2023-04-27T05:01:34.224Z,59.89
2023-04-27T05:02:34.332Z,59.87
2023-04-27T05:03:34.295Z,61.45
2023-04-27T05:04:34.293Z,61.48
2023-04-27T05:05:34.088Z,60.95
2023-04-27T05:06:34.131Z,61.05
2023-04-27T05:07:34.088Z,60.48
2023-04-27T05:08:34.089Z,60.75
2023-04-27T05:09:34.080Z,61.75
2023-04-27T05:10:34.134Z,62.64
2023-04-27T05:11:34.087Z,59.70
2023-04-27T05:12:34.065Z,60.91
2023-04-27T05:13:33.993Z,61.55
2023-04-27T05:14:34.013Z,61.30
2023-04-27T05:15:33.975Z,58.21
2023-04-27T05:16:34.088Z,59.27
2023-04-27T05:17:34.096Z,61.61
2023-04-27T05:18:33.972Z,60.84
2023-04-27T05:19:34.019Z,58.81
2023-04-27T05:20:33.965Z,59.71
2023-04-27T05:21:33.977Z,61.85
2023-04-27T05:22:33.927Z,59.82
2023-04-27T05:23:33.925Z,59.62
2023-04-27T05:24:34.550Z,60.31
2023-04-27T05:25:33.948Z,59.73
2023-04-27T05:26:34.802Z,61.27
2023-04-27T05:27:33.994Z,59.27
2023-04-27T05:28:33.864Z,59.24
2023-04-27T05:29:33.897Z,59.20
2023-04-27T05:30:33.847Z,58.53
2023-04-27T05:31:33.938Z,59.60
2023-04-27T05:32:33.928Z,60.38
2023-04-27T05:33:33.857Z,60.74
2023-04-27T05:34:33.793Z,59.35
2023-04-27T05:35:33.797Z,61.05
2023-04-27T05:36:33.829Z,59.36
2023-04-27T05:37:33.808Z,59.38
2023-04-27T05:38:33.746Z,58.90
2023-04-27T05:39:33.768Z,59.68
2023-04-27T05:40:33.807Z,61.00
2023-04-27T05:41:34.725Z,60.38
2023-04-27T05:42:33.797Z,60.38
2023-04-27T05:43:33.800Z,59.64
2023-04-27T05:44:33.688Z,60.29
2023-04-27T05:45:34.529Z,60.26
2023-04-27T05:46:33.679Z,58.80
2023-04-27T05:47:33.835Z,60.30
2023-04-27T05:48:33.667Z,58.56
2023-04-27T05:49:33.651Z,59.58
2023-04-27T05:50:33.640Z,59.40
2023-04-27T05:51:33.660Z,60.32
2023-04-27T05:52:34.548Z,59.69
2023-04-27T05:53:33.634Z,56.38
2023-04-27T05:54:33.584Z,59.50
2023-04-27T05:55:33.624Z,60.79
2023-04-27T05:56:33.744Z,58.36
2023-04-27T05:57:33.645Z,58.07
2023-04-27T05:58:33.622Z,57.42
2023-04-27T05:59:33.600Z,58.47
2023-04-27T06:00:33.522Z,59.07
2023-04-27T06:01:33.571Z,60.71
2023-04-27T06:02:33.669Z,58.64
2023-04-27T06:03:34.505Z,59.72
2023-04-27T06:04:33.580Z,59.52
2023-04-27T06:05:33.634Z,58.30
2023-04-27T06:06:33.553Z,58.48
2023-04-27T06:07:33.598Z,58.63
2023-04-27T06:08:33.480Z,57.86
2023-04-27T06:09:33.467Z,56.39
2023-04-27T06:10:33.458Z,55.46
2023-04-27T06:11:33.449Z,58.36
2023-04-27T06:12:33.497Z,58.24
2023-04-27T06:13:33.442Z,58.80
2023-04-27T06:14:33.445Z,60.51
2023-04-27T06:15:33.558Z,56.72
2023-04-27T06:16:33.510Z,56.13
2023-04-27T06:17:33.466Z,57.38
2023-04-27T06:32:50.178Z,55.59
2023-04-27T06:33:50.064Z,58.11
2023-04-27T06:34:50.065Z,57.34
2023-04-27T06:35:50.268Z,59.96
2023-04-27T06:36:50.070Z,57.56
2023-04-27T06:37:50.032Z,55.98
2023-04-27T06:38:50.024Z,57.39
2023-04-27T06:39:51.198Z,58.26
2023-04-27T06:40:51.176Z,58.47
2023-04-27T06:41:51.205Z,59.88
2023-04-27T06:42:51.226Z,57.98
2023-04-27T06:43:51.162Z,57.63
2023-04-27T06:44:51.197Z,58.98
2023-04-27T06:45:51.259Z,56.58
2023-04-27T06:46:51.150Z,58.70
2023-04-27T06:47:51.228Z,58.01
2023-04-27T06:48:51.121Z,59.27
2023-04-27T06:49:51.287Z,55.30
2023-04-27T06:50:51.088Z,58.43
2023-04-27T06:51:51.150Z,58.25
2023-04-27T06:52:51.187Z,58.85
2023-04-27T06:53:51.115Z,57.36
2023-04-27T06:54:51.134Z,57.37
2023-04-27T06:55:51.123Z,55.99
2023-04-27T06:56:51.035Z,54.29
2023-04-27T06:57:51.072Z,55.99
2023-04-27T06:58:52.084Z,55.60
2023-04-27T06:59:51.053Z,56.43
2023-04-27T07:00:50.983Z,53.89
2023-04-27T07:01:51.015Z,52.38
2023-04-27T07:02:51.044Z,58.10
2023-04-27T07:03:51.266Z,53.40
2023-04-27T07:04:51.045Z,55.19
2023-04-27T07:05:50.976Z,54.19
2023-04-27T07:06:51.856Z,56.01
2023-04-27T07:07:50.925Z,55.04
2023-04-27T07:08:50.912Z,54.26
2023-04-27T07:09:50.904Z,56.34
2023-04-27T07:10:50.925Z,56.44
2023-04-27T07:11:50.851Z,56.75
2023-04-27T07:12:50.999Z,56.42
2023-04-27T07:13:50.964Z,55.72
2023-04-27T07:14:50.853Z,54.20
2023-04-27T07:15:50.878Z,56.48
2023-04-27T07:16:50.878Z,56.33
2023-04-27T07:17:51.035Z,52.69
2023-04-27T07:18:50.873Z,55.39
2023-04-27T07:19:50.827Z,54.31
2023-04-27T07:20:51.308Z,56.91
2023-04-27T07:21:50.779Z,57.04
2023-04-27T07:22:50.817Z,56.95
2023-04-27T07:23:50.758Z,53.03
2023-04-27T07:24:50.783Z,54.38
2023-04-27T07:25:50.749Z,55.93
2023-04-27T07:26:50.819Z,55.46
2023-04-27T07:27:50.722Z,53.83
2023-04-27T07:28:50.679Z,53.32
2023-04-27T07:29:50.734Z,55.38
2023-04-27T07:30:50.700Z,54.88
2023-04-27T07:31:52.286Z,52.04
2023-04-27T07:32:51.719Z,54.70
2023-04-27T07:33:50.675Z,58.10
2023-04-27T07:34:54.151Z,53.67
2023-04-27T07:35:51.660Z,54.12
2023-04-27T07:36:50.625Z,53.39
2023-04-27T07:37:50.627Z,53.81
2023-04-27T07:38:50.713Z,55.45
2023-04-27T07:39:50.569Z,52.46
2023-04-27T07:40:50.601Z,52.89
2023-04-27T07:41:50.629Z,54.33
2023-04-27T07:42:50.565Z,48.98
2023-04-27T07:43:50.603Z,53.17
2023-04-27T07:44:50.526Z,54.99
2023-04-27T07:45:51.312Z,56.04
2023-04-27T07:46:50.550Z,53.49
2023-04-27T07:47:50.569Z,53.08
2023-04-27T07:48:50.539Z,54.27
2023-04-27T07:49:50.486Z,54.59
2023-04-27T07:50:50.479Z,53.54
2023-04-27T07:51:50.474Z,55.18
2023-04-27T07:52:50.466Z,53.21
2023-04-27T07:53:50.484Z,51.74
2023-04-27T07:54:50.515Z,54.48
2023-04-27T07:55:50.432Z,55.00
2023-04-27T07:56:50.394Z,53.31
2023-04-27T07:57:50.461Z,53.42
2023-04-27T07:58:50.385Z,54.60
2023-04-27T07:59:50.352Z,54.28
2023-04-27T08:00:50.351Z,55.13
2023-04-27T08:01:51.300Z,52.64
2023-04-27T08:02:50.563Z,55.97
2023-04-27T08:03:50.719Z,54.81
2023-04-27T08:04:50.662Z,53.81
2023-04-27T08:05:51.638Z,54.05
2023-04-27T08:06:50.724Z,52.67
2023-04-27T08:07:50.450Z,54.40
2023-04-27T08:08:50.367Z,53.35
2023-04-27T08:09:50.292Z,53.36
2023-04-27T08:10:50.322Z,54.11
2023-04-27T08:11:50.258Z,56.01
2023-04-27T08:12:50.396Z,54.82
2023-04-27T08:13:50.269Z,54.14
2023-04-27T08:14:50.199Z,53.52
2023-04-27T08:15:50.297Z,51.92
2023-04-27T08:16:50.256Z,54.77
2023-04-27T08:17:50.440Z,52.99
2023-04-27T08:18:50.175Z,54.80
2023-04-27T08:19:50.203Z,53.46
2023-04-27T08:20:50.209Z,53.28
2023-04-27T08:21:50.232Z,53.35
2023-04-27T08:22:50.247Z,52.74
2023-04-27T08:23:50.159Z,51.65
2023-04-27T08:24:50.179Z,55.15
2023-04-27T08:25:50.213Z,51.57
2023-04-27T08:26:50.139Z,50.56
2023-04-27T08:27:50.140Z,53.47
2023-04-27T08:28:50.192Z,51.79
2023-04-27T08:29:50.112Z,52.90
2023-04-27T08:30:50.064Z,52.25
2023-04-27T08:31:50.284Z,54.50
2023-04-27T08:32:50.114Z,55.97
2023-04-27T08:33:50.045Z,56.63
2023-04-27T08:34:50.058Z,51.97
2023-04-27T08:35:50.223Z,54.09
2023-04-27T08:36:50.053Z,52.35
2023-04-27T08:37:50.147Z,55.28
2023-04-27T08:38:49.989Z,50.94
2023-04-27T08:39:50.034Z,55.66
2023-04-27T08:40:50.078Z,55.47
2023-04-27T08:41:49.976Z,54.01
2023-04-27T08:42:50.915Z,55.87
2023-04-27T08:43:49.967Z,55.50
2023-04-27T08:44:50.658Z,53.01
2023-04-27T08:45:49.889Z,53.07
2023-04-27T08:46:49.942Z,54.21
2023-04-27T08:47:49.930Z,54.33
2023-04-27T08:48:49.944Z,57.34
2023-04-27T08:49:50.076Z,55.34
2023-04-27T08:50:49.873Z,56.09
2023-04-27T08:51:49.945Z,57.31
2023-04-27T08:52:49.913Z,55.41
2023-04-27T08:53:49.811Z,51.75
2023-04-27T08:54:49.817Z,58.29
2023-04-27T08:55:49.922Z,56.10
2023-04-27T08:56:50.412Z,54.82
2023-04-27T08:57:49.860Z,53.28
2023-04-27T08:58:49.819Z,49.74
2023-04-27T08:59:49.768Z,52.54
2023-04-27T09:00:50.822Z,55.20
2023-04-27T09:01:49.880Z,51.62
2023-04-27T09:02:49.945Z,50.38
2023-04-27T09:03:50.531Z,53.27
2023-04-27T09:04:49.828Z,50.59
2023-04-27T09:06:03.022Z,49.75
2023-04-27T09:06:51.787Z,51.11
2023-04-27T09:07:49.800Z,50.98
2023-04-27T09:08:49.657Z,50.10
2023-04-27T09:09:51.017Z,49.49
2023-04-27T09:10:50.313Z,51.75
2023-04-27T09:11:49.647Z,53.55
2023-04-27T09:12:49.706Z,51.69
2023-04-27T09:13:49.732Z,50.54
2023-04-27T09:14:49.759Z,51.90
2023-04-27T09:15:49.703Z,55.33
2023-04-27T09:16:49.681Z,54.85
2023-04-27T09:17:49.612Z,53.17
2023-04-27T09:18:49.631Z,51.66
2023-04-27T09:19:49.624Z,55.26
2023-04-27T09:20:49.606Z,53.54
2023-04-27T09:21:49.625Z,52.87
2023-04-27T09:22:49.606Z,49.65
2023-04-27T09:23:50.190Z,52.05
2023-04-27T09:24:49.662Z,48.24
2023-04-27T09:25:49.521Z,49.18
2023-04-27T09:26:49.558Z,52.99
2023-04-27T09:27:49.594Z,53.88
2023-04-27T09:28:49.753Z,51.97
2023-04-27T09:29:49.463Z,51.69
2023-04-27T09:30:49.559Z,51.56
2023-04-27T09:31:49.826Z,51.80
2023-04-27T09:32:49.652Z,50.94
2023-04-27T09:33:49.467Z,49.54
2023-04-27T09:34:49.558Z,55.46
2023-04-27T09:35:49.522Z,51.99
2023-04-27T09:36:49.404Z,51.10
2023-04-27T09:37:49.592Z,53.37
2023-04-27T09:38:49.379Z,49.19
2023-04-27T09:39:49.442Z,48.66
2023-04-27T09:40:50.254Z,49.56
2023-04-27T09:41:49.422Z,49.35
2023-04-27T09:42:49.407Z,52.45
2023-04-27T09:43:49.383Z,53.02
2023-04-27T09:44:49.683Z,53.83
2023-04-27T09:45:49.351Z,50.07
2023-04-27T09:46:49.302Z,50.13
2023-04-27T09:47:49.940Z,52.43
2023-04-27T09:48:49.270Z,52.09
2023-04-27T09:49:49.276Z,50.12
2023-04-27T09:50:49.256Z,52.40
2023-04-27T09:51:50.673Z,53.10
2023-04-27T09:52:49.318Z,52.48
2023-04-27T09:53:49.313Z,51.81
2023-04-27T09:54:49.239Z,54.65
2023-04-27T09:55:51.121Z,51.23
2023-04-27T09:56:49.279Z,51.22
2023-04-27T09:57:49.173Z,51.60
2023-04-27T09:58:49.242Z,51.88
2023-04-27T09:59:49.204Z,49.55
2023-04-27T10:00:49.246Z,50.45
2023-04-27T10:01:49.249Z,51.24
2023-04-27T10:02:53.639Z,51.94
2023-04-27T10:03:51.355Z,52.41
2023-04-27T10:04:49.175Z,50.91
2023-04-27T10:05:50.057Z,52.93
2023-04-27T10:06:49.134Z,54.39
2023-04-27T10:07:49.081Z,53.81
2023-04-27T10:08:49.103Z,53.35
2023-04-27T10:09:49.068Z,52.30
2023-04-27T10:10:49.832Z,53.24
2023-04-27T10:11:49.089Z,51.77
2023-04-27T10:12:49.557Z,52.85
2023-04-27T10:13:49.063Z,53.12
2023-04-27T10:14:49.124Z,57.18
2023-04-27T10:15:49.042Z,53.79
2023-04-27T10:16:49.035Z,52.81
2023-04-27T10:17:49.044Z,49.59
2023-04-27T10:18:48.996Z,53.81
2023-04-27T10:19:49.015Z,51.98
2023-04-27T10:20:48.966Z,53.72
2023-04-27T10:21:48.950Z,54.63
2023-04-27T10:22:48.968Z,54.22
2023-04-27T10:23:48.955Z,53.67
2023-04-27T10:24:48.908Z,53.23
2023-04-27T10:25:48.986Z,55.04
2023-04-27T10:26:48.924Z,56.36
2023-04-27T10:27:48.886Z,56.27
2023-04-27T10:28:48.990Z,54.36
2023-04-27T10:29:48.890Z,54.07
2023-04-27T10:30:48.870Z,52.52
2023-04-27T10:31:48.902Z,55.31
2023-04-27T10:32:48.984Z,52.08
2023-04-27T10:33:48.883Z,53.05
2023-04-27T10:34:48.824Z,51.33
2023-04-27T10:35:49.009Z,52.14
2023-04-27T10:36:48.833Z,51.79
2023-04-27T10:37:48.805Z,52.55
2023-04-27T10:38:48.757Z,54.93
2023-04-27T10:39:50.111Z,50.21
2023-04-27T10:40:49.787Z,50.91
2023-04-27T10:41:50.696Z,51.47
2023-04-27T10:42:48.760Z,52.43
2023-04-27T10:43:48.769Z,53.44
2023-04-27T10:44:48.723Z,50.90
2023-04-27T10:45:48.690Z,52.03
2023-04-27T10:46:48.874Z,50.34
2023-04-27T10:47:48.753Z,49.90
2023-04-27T10:48:49.681Z,50.68
2023-04-27T10:49:48.694Z,50.62
2023-04-27T10:50:49.356Z,54.03
2023-04-27T10:51:49.347Z,54.86
2023-04-27T10:52:48.675Z,54.50
2023-04-27T10:53:48.684Z,55.29
2023-04-27T10:54:48.695Z,55.64
2023-04-27T10:55:48.785Z,56.51
2023-04-27T10:56:48.705Z,55.66
2023-04-27T10:57:48.653Z,54.86
2023-04-27T10:58:49.623Z,53.00
2023-04-27T10:59:49.582Z,55.02
2023-04-27T11:00:48.646Z,56.21
2023-04-27T11:01:48.618Z,54.36
2023-04-27T11:02:48.738Z,54.30
2023-04-27T11:03:48.704Z,55.91
2023-04-27T11:04:48.653Z,54.63
2023-04-27T11:05:48.514Z,52.70
2023-04-27T11:06:48.583Z,55.04
2023-04-27T11:07:48.539Z,54.45
2023-04-27T11:08:48.528Z,55.86
2023-04-27T11:09:48.743Z,51.79
2023-04-27T11:10:48.490Z,63.71
2023-04-27T11:11:48.506Z,53.06
2023-04-27T11:12:48.597Z,54.85
2023-04-27T11:13:48.509Z,56.66
2023-04-27T11:14:48.460Z,53.70
2023-04-27T11:15:48.515Z,55.07
2023-04-27T11:16:48.572Z,55.65
2023-04-27T11:17:48.471Z,57.42
2023-04-27T11:18:48.473Z,53.91
2023-04-27T11:19:48.432Z,54.03
2023-04-27T11:20:48.419Z,57.70
2023-04-27T11:21:48.369Z,58.28
2023-04-27T11:22:48.393Z,56.04
2023-04-27T11:23:49.322Z,56.60
2023-04-27T11:24:48.329Z,54.12
2023-04-27T11:25:48.364Z,56.24
2023-04-27T11:26:48.323Z,53.44
2023-04-27T11:27:48.352Z,55.01
2023-04-27T11:28:48.313Z,56.47
2023-04-27T11:29:48.273Z,55.99
2023-04-27T11:30:48.362Z,56.84
2023-04-27T11:31:48.281Z,54.20
2023-04-27T11:32:48.478Z,55.56
2023-04-27T11:33:48.232Z,51.62
2023-04-27T11:34:48.298Z,55.36
2023-04-27T11:35:48.327Z,54.40
2023-04-27T11:36:48.229Z,54.36
2023-04-27T11:37:49.240Z,53.93
2023-04-27T11:38:48.202Z,54.79
2023-04-27T11:39:48.238Z,51.37
2023-04-27T11:40:48.175Z,54.76
2023-04-27T11:41:48.240Z,56.32
2023-04-27T11:42:48.193Z,54.98
2023-04-27T11:43:48.150Z,53.01
2023-04-27T11:44:48.214Z,53.52
2023-04-27T11:45:48.112Z,53.79
2023-04-27T11:46:48.141Z,52.15
2023-04-27T11:47:48.177Z,55.69
2023-04-27T11:48:48.169Z,54.41
2023-04-27T11:49:48.086Z,54.39
2023-04-27T11:50:48.103Z,51.26
2023-04-27T11:51:48.061Z,54.56
2023-04-27T11:52:48.061Z,53.32
2023-04-27T11:53:48.041Z,49.84
2023-04-27T11:54:48.021Z,51.49
2023-04-27T11:55:48.156Z,53.80
2023-04-27T11:56:48.150Z,54.24
2023-04-27T11:57:48.021Z,54.31
2023-04-27T11:58:48.025Z,54.92
2023-04-27T11:59:47.999Z,55.38
2023-04-27T12:00:48.003Z,52.24
2023-04-27T12:01:48.009Z,55.93
2023-04-27T12:02:48.296Z,55.27
2023-04-27T12:03:48.063Z,53.60
2023-04-27T12:04:48.463Z,52.19
2023-04-27T12:05:48.117Z,54.45
2023-04-27T12:06:48.077Z,55.33
2023-04-27T12:07:47.913Z,53.28
2023-04-27T12:08:47.881Z,53.44
2023-04-27T12:09:47.895Z,52.26
2023-04-27T12:10:47.898Z,51.28
2023-04-27T12:11:47.977Z,53.60
2023-04-27T12:12:47.880Z,48.75
2023-04-27T12:13:47.893Z,55.25
2023-04-27T12:14:47.818Z,57.70
2023-04-27T12:15:47.812Z,54.07
2023-04-27T12:16:47.972Z,58.09
2023-04-27T12:17:47.866Z,56.03
2023-04-27T12:18:47.880Z,55.45
2023-04-27T12:19:47.784Z,52.38
2023-04-27T12:20:47.813Z,56.17
2023-04-27T12:21:47.794Z,53.50
2023-04-27T12:22:47.851Z,52.20
2023-04-27T12:23:47.829Z,51.16
2023-04-27T12:24:47.716Z,52.98
2023-04-27T12:25:47.725Z,51.90
2023-04-27T12:26:47.796Z,53.51
2023-04-27T12:27:47.808Z,53.88
2023-04-27T12:28:47.703Z,51.81
2023-04-27T12:29:47.660Z,51.27
2023-04-27T12:30:48.352Z,52.86
2023-04-27T12:31:47.694Z,50.99
2023-04-27T12:32:47.766Z,54.30
2023-04-27T12:33:47.646Z,52.14
2023-04-27T12:34:47.732Z,51.12
2023-04-27T12:35:47.676Z,53.63
2023-04-27T12:36:47.592Z,52.36
2023-04-27T12:37:47.758Z,50.45
2023-04-27T12:38:47.603Z,50.82
2023-04-27T12:39:47.547Z,50.66
2023-04-27T12:40:47.602Z,51.68
2023-04-27T12:41:47.599Z,50.75
2023-04-27T12:42:47.609Z,50.19
2023-04-27T12:43:47.560Z,51.57
2023-04-27T12:44:47.688Z,53.70
2023-04-27T12:45:47.602Z,53.80
2023-04-27T12:46:47.633Z,54.66
2023-04-27T12:48:01.621Z,53.03
2023-04-27T12:48:49.584Z,51.86
2023-04-27T12:49:47.643Z,53.48
2023-04-27T12:50:47.448Z,57.09
2023-04-27T12:51:47.477Z,54.58
2023-04-27T12:52:47.435Z,55.41
2023-04-27T12:53:47.462Z,54.52
2023-04-27T12:54:47.465Z,53.73
2023-04-27T12:55:47.521Z,55.52
2023-04-27T12:56:47.408Z,55.88
2023-04-27T12:57:47.447Z,52.64
2023-04-27T12:58:47.413Z,55.31
2023-04-27T12:59:47.389Z,53.25
2023-04-27T13:00:47.393Z,54.39
2023-04-27T13:01:47.408Z,53.65
2023-04-27T13:02:47.501Z,52.69
2023-04-27T13:03:47.544Z,53.57
2023-04-27T13:04:47.388Z,55.55
2023-04-27T13:05:47.312Z,56.09
2023-04-27T13:06:47.309Z,53.56